world map with TGG marked

TGG - Airport

This information may not be accurate or current and is not valid for navigation or flight planning. No warranty of fitness for any purpose is made or implied.

flag of Terengganuflag of Malaysia

Donate via PayPal

Additional information is available on the NEW Great Circle Mapper

Location
City:  Kuala Terengganu, Terengganu, Malaysia
Name:Sultan Mahmud
ICAO / IATA:WMKN / TGG

Details
Type:Airport (Aerodrome, Airfield)
Latitude:5°22'58"N (5.382639)
Longitude:103°06'12"E (103.103360)
Datum:WGS 1984
Elevation:21 ft (6 m)
Runways:1
Longest:6600 × 150 ft (2012 × 45.5 m)

Time
Timezone:UTC+8 (DST+10)
Local Time:

Weather
METAR:WMKN  132200Z 00000KT 9999 SCT022 BKN150 25/24 Q1007
TAF:WMKN  (expired)

Related Locations
Nearby:
Farthest:SPBS: 12415 mi / 19980 km
Bellavista [Bellavista Airport], LOR, PE

Find:

   beyond  
but within

Other Information
Maps:
Sources:

  


 


Great Circle Mapper   Great Circle Mapper
Great Circle Mapper FAQ   Great Circle Mapper FAQ
  Karl's Home Page
KLSē   KLSē Home
   GC on Facebook
Airlines of the World   Airlines of the World
Donate via PayPal


Copyright © 2004-2018, Karl L. Swartz. All rights reserved.
All trademarks mentioned herein belong to their respective owners.

Please see credits for attribution and copyright information.

Karl Swartz <karl@kls2.com>
  Powered by FreeBSD
Valid HTML 4.01!
Labeled with ICRA
hCard Microformat
Geo Microformat